createdAt,value
2017-09-22T00:00:58.808Z,31.70
2017-09-22T00:03:29.403Z,28.73
2017-09-22T00:06:00.736Z,29.30
2017-09-22T00:08:32.075Z,23.83
2017-09-22T00:11:02.495Z,18.03
2017-09-22T00:13:32.869Z,23.07
2017-09-22T00:16:03.211Z,17.80
2017-09-22T00:18:33.291Z,24.57
2017-09-22T00:21:03.894Z,21.83
2017-09-22T00:23:34.533Z,29.63
2017-09-22T00:26:04.840Z,20.50
2017-09-22T00:28:35.628Z,36.77
2017-09-22T00:31:06.684Z,35.80
2017-09-22T00:33:37.038Z,29.23
2017-09-22T00:36:07.469Z,19.40
2017-09-22T00:38:39.135Z,37.27
2017-09-22T00:41:09.987Z,31.40
2017-09-22T00:43:40.027Z,34.20
2017-09-22T00:46:10.604Z,28.40
2017-09-22T00:48:41.566Z,22.30
2017-09-22T00:51:12.131Z,33.57
2017-09-22T00:53:42.465Z,38.87
2017-09-22T00:56:12.989Z,36.40
2017-09-22T00:58:43.384Z,41.43
2017-09-22T01:01:14.442Z,36.17
2017-09-22T01:03:45.317Z,34.33
2017-09-22T01:06:16.506Z,24.13
2017-09-22T01:08:47.995Z,40.43
2017-09-22T01:11:19.927Z,29.03
2017-09-22T01:13:51.195Z,36.17
2017-09-22T01:16:21.572Z,34.30
2017-09-22T01:18:52.447Z,24.37
2017-09-22T01:21:23.355Z,28.73
2017-09-22T01:23:53.722Z,17.90
2017-09-22T01:26:23.976Z,37.40
2017-09-22T01:28:55.269Z,26.23
2017-09-22T01:31:25.843Z,30.17
2017-09-22T01:33:56.898Z,22.40
2017-09-22T01:36:27.251Z,23.90
2017-09-22T01:38:58.182Z,21.47
2017-09-22T01:41:29.039Z,29.23
2017-09-22T01:43:59.882Z,26.80
2017-09-22T01:46:30.246Z,29.83
2017-09-22T01:49:00.577Z,32.43
2017-09-22T01:51:30.961Z,31.80
2017-09-22T01:54:01.401Z,30.90
2017-09-22T01:56:31.903Z,43.70
2017-09-22T01:59:02.689Z,31.30
2017-09-22T02:01:33.220Z,35.37
2017-09-22T02:04:04.538Z,35.07
2017-09-22T02:06:35.618Z,33.30
2017-09-22T02:09:06.529Z,26.03
2017-09-22T02:11:36.663Z,34.07
2017-09-22T02:14:06.686Z,37.63
2017-09-22T02:16:37.123Z,44.40
2017-09-22T02:19:07.292Z,34.30
2017-09-22T02:21:37.832Z,32.53
2017-09-22T02:24:08.477Z,44.00
2017-09-22T02:26:38.858Z,34.47
2017-09-22T02:29:10.994Z,36.47
2017-09-22T02:31:41.147Z,37.53
2017-09-22T02:34:11.648Z,40.53
2017-09-22T02:36:42.297Z,30.97
2017-09-22T02:39:13.408Z,48.03
2017-09-22T02:41:43.971Z,31.67
2017-09-22T02:44:14.705Z,44.33
2017-09-22T02:46:45.982Z,42.23
2017-09-22T02:49:16.771Z,49.67
2017-09-22T02:51:48.928Z,42.33
2017-09-22T02:54:19.951Z,49.83
2017-09-22T02:56:50.507Z,40.53
2017-09-22T02:59:21.287Z,45.10
2017-09-22T03:01:52.689Z,50.77
2017-09-22T03:04:23.716Z,49.53
2017-09-22T03:06:55.015Z,45.13
2017-09-22T03:09:26.681Z,42.90
2017-09-22T03:11:58.283Z,48.90
2017-09-22T03:14:30.152Z,44.53
2017-09-22T03:17:01.194Z,44.27
2017-09-22T03:19:32.133Z,46.70
2017-09-22T03:22:04.027Z,48.20
2017-09-22T03:24:35.024Z,46.40
2017-09-22T03:27:06.175Z,37.03
2017-09-22T03:29:36.593Z,32.37
2017-09-22T03:32:07.369Z,36.20
2017-09-22T03:34:38.020Z,34.20
2017-09-22T03:37:10.619Z,38.97
2017-09-22T03:39:41.839Z,35.43
2017-09-22T03:42:13.531Z,32.63
2017-09-22T03:44:44.247Z,27.00
2017-09-22T03:47:15.271Z,35.70
2017-09-22T03:49:46.508Z,36.97
2017-09-22T03:52:16.837Z,35.37
2017-09-22T03:54:47.176Z,28.30
2017-09-22T03:57:18.630Z,39.50
2017-09-22T03:59:49.162Z,35.20
2017-09-22T04:02:20.060Z,42.53
2017-09-22T04:04:51.309Z,39.10
2017-09-22T04:07:21.839Z,33.23
2017-09-22T04:09:52.963Z,45.00
2017-09-22T04:12:23.471Z,30.17
2017-09-22T04:17:29.522Z,38.77
2017-09-22T04:20:00.421Z,45.80
2017-09-22T04:22:31.890Z,31.47
2017-09-22T04:25:02.195Z,37.20
2017-09-22T04:27:32.565Z,33.03
2017-09-22T04:30:02.704Z,37.50
2017-09-22T04:32:33.474Z,32.67
2017-09-22T04:35:12.665Z,47.47
2017-09-22T04:37:47.704Z,47.77
2017-09-22T04:40:25.581Z,40.23
2017-09-22T04:43:00.634Z,36.53
2017-09-22T04:45:32.799Z,53.23
2017-09-22T04:48:04.935Z,56.50
2017-09-22T04:50:36.042Z,44.47
2017-09-22T04:53:06.171Z,45.47
2017-09-22T04:55:37.563Z,45.67
2017-09-22T04:58:08.458Z,39.73
2017-09-22T05:00:39.109Z,41.80
2017-09-22T05:03:10.285Z,36.30
2017-09-22T05:05:42.051Z,56.83
2017-09-22T05:08:13.580Z,35.47
2017-09-22T05:10:45.585Z,37.33
2017-09-22T05:13:16.671Z,33.70
2017-09-22T05:15:47.216Z,41.10
2017-09-22T05:18:17.799Z,60.23
2017-09-22T05:20:49.541Z,60.17
2017-09-22T05:23:21.431Z,44.30
2017-09-22T05:25:52.458Z,60.90
2017-09-22T05:28:23.172Z,52.30
2017-09-22T05:30:54.243Z,53.57
2017-09-22T05:33:24.721Z,58.90
2017-09-22T05:35:56.175Z,60.00
2017-09-22T05:38:26.970Z,53.80
2017-09-22T05:40:57.451Z,55.97
2017-09-22T05:43:28.624Z,54.70
2017-09-22T05:45:59.434Z,51.83
2017-09-22T05:48:29.711Z,48.93
2017-09-22T05:50:59.924Z,57.20
2017-09-22T05:53:30.302Z,52.60
2017-09-22T05:56:00.432Z,47.97
2017-09-22T05:58:30.738Z,42.77
2017-09-22T06:01:00.970Z,54.30
2017-09-22T06:03:31.077Z,39.07
2017-09-22T06:06:02.098Z,57.10
2017-09-22T06:08:32.213Z,45.43
2017-09-22T06:11:02.655Z,49.23
2017-09-22T06:13:32.893Z,46.27
2017-09-22T06:16:05.205Z,47.73
2017-09-22T06:18:35.519Z,45.43
2017-09-22T06:21:05.699Z,51.10
2017-09-22T06:23:36.577Z,44.90
2017-09-22T06:26:07.115Z,44.17
2017-09-22T06:28:37.674Z,41.10
2017-09-22T06:31:08.599Z,49.93
2017-09-22T06:33:38.791Z,52.93
2017-09-22T06:36:09.315Z,48.70
2017-09-22T06:38:39.409Z,40.83
2017-09-22T06:41:10.454Z,52.37
2017-09-22T06:43:41.313Z,49.30
2017-09-22T06:46:11.402Z,53.93
2017-09-22T06:48:42.547Z,52.70
2017-09-22T06:51:13.428Z,41.90
2017-09-22T06:53:43.969Z,43.30
2017-09-22T06:56:14.647Z,46.73
2017-09-22T06:58:46.107Z,46.60
2017-09-22T07:01:16.416Z,62.73
2017-09-22T07:03:47.385Z,59.20
2017-09-22T07:06:17.845Z,49.03
2017-09-22T07:08:48.011Z,54.50
2017-09-22T07:11:18.330Z,59.13
2017-09-22T07:13:49.714Z,50.23
2017-09-22T07:16:20.140Z,47.73
2017-09-22T07:18:51.358Z,49.47
2017-09-22T07:21:22.645Z,53.27
2017-09-22T07:23:52.847Z,46.53
2017-09-22T07:26:25.453Z,51.33
2017-09-22T07:28:55.632Z,49.30
2017-09-22T07:31:26.944Z,56.30
2017-09-22T07:33:58.245Z,50.27
2017-09-22T07:36:28.461Z,47.33
2017-09-22T07:38:58.770Z,47.07
2017-09-22T07:41:28.795Z,48.63
2017-09-22T07:43:59.325Z,60.97
2017-09-22T07:46:29.486Z,41.80
2017-09-22T07:48:59.573Z,43.60
2017-09-22T07:51:29.882Z,50.23
2017-09-22T07:54:00.852Z,51.50
2017-09-22T07:56:31.072Z,51.23
2017-09-22T07:59:01.545Z,53.77
2017-09-22T08:01:31.767Z,52.90
2017-09-22T08:04:02.759Z,52.00
2017-09-22T08:06:35.162Z,47.37
2017-09-22T08:09:05.717Z,48.60
2017-09-22T08:11:36.657Z,54.00
2017-09-22T08:14:06.993Z,39.20
2017-09-22T08:16:38.527Z,45.20
2017-09-22T08:19:11.683Z,49.10
2017-09-22T08:21:43.667Z,46.33
2017-09-22T08:24:15.702Z,43.40
2017-09-22T08:26:48.673Z,46.90
2017-09-22T08:29:22.183Z,46.97
2017-09-22T08:31:53.217Z,56.43
2017-09-22T08:34:23.455Z,48.40
2017-09-22T08:36:54.092Z,48.50
2017-09-22T08:39:24.391Z,50.20
2017-09-22T08:41:54.445Z,51.03
2017-09-22T08:44:24.771Z,56.33
2017-09-22T08:46:54.790Z,49.60
2017-09-22T08:49:24.906Z,47.47
2017-09-22T08:51:55.079Z,50.67
2017-09-22T08:54:28.320Z,49.20
2017-09-22T08:56:59.507Z,46.10
2017-09-22T08:59:29.923Z,35.67
2017-09-22T09:02:00.337Z,39.93
2017-09-22T09:04:31.259Z,45.83
2017-09-22T09:07:01.360Z,42.70
2017-09-22T09:09:32.206Z,43.23
2017-09-22T09:12:02.470Z,38.57
2017-09-22T09:14:32.615Z,42.60
2017-09-22T09:17:02.737Z,33.47
2017-09-22T09:19:33.275Z,35.23
2017-09-22T09:22:03.382Z,36.37
2017-09-22T09:24:33.888Z,33.70
2017-09-22T09:27:03.993Z,30.83
2017-09-22T09:29:34.878Z,29.00
2017-09-22T09:32:05.270Z,23.50
2017-09-22T09:34:35.586Z,26.57
2017-09-22T09:37:05.687Z,26.93
2017-09-22T09:39:36.630Z,27.70
2017-09-22T09:42:07.474Z,24.60
2017-09-22T09:44:37.470Z,29.23
2017-09-22T09:47:08.233Z,32.00
2017-09-22T09:49:38.335Z,28.00
2017-09-22T09:52:08.664Z,26.67
2017-09-22T09:54:39.484Z,26.50
2017-09-22T09:57:10.533Z,30.60
2017-09-22T09:59:41.350Z,32.00
2017-09-22T10:02:11.518Z,27.73
2017-09-22T10:04:41.753Z,30.33
2017-09-22T10:07:18.945Z,25.47
2017-09-22T10:09:51.320Z,23.30
2017-09-22T10:12:21.810Z,22.90
2017-09-22T10:14:52.302Z,21.63
2017-09-22T10:17:22.641Z,20.40
2017-09-22T10:19:52.776Z,24.90
2017-09-22T10:22:23.841Z,20.03
2017-09-22T10:24:53.865Z,18.67
2017-09-22T10:27:25.045Z,18.43
2017-09-22T10:29:55.253Z,19.00
2017-09-22T10:32:25.776Z,18.43
2017-09-22T10:34:55.958Z,17.00
2017-09-22T10:37:26.181Z,15.07
2017-09-22T10:39:57.164Z,24.83
2017-09-22T10:42:27.622Z,26.60
2017-09-22T10:44:57.694Z,22.33
2017-09-22T10:47:27.844Z,14.30
2017-09-22T10:49:57.961Z,14.03
2017-09-22T10:52:28.357Z,16.00
2017-09-22T10:54:58.817Z,15.40
2017-09-22T10:57:30.170Z,16.87
2017-09-22T11:00:00.525Z,15.47
2017-09-22T11:02:30.636Z,19.87
2017-09-22T11:05:00.801Z,16.53
2017-09-22T11:07:30.989Z,18.23
2017-09-22T11:10:01.162Z,19.33
2017-09-22T11:12:32.422Z,16.30
2017-09-22T11:15:02.465Z,15.27
2017-09-22T11:17:33.454Z,17.00
2017-09-22T11:20:03.750Z,19.83
2017-09-22T11:22:34.242Z,23.87
2017-09-22T11:25:05.239Z,17.17
2017-09-22T11:27:35.348Z,18.27
2017-09-22T11:30:09.497Z,13.80
2017-09-22T11:32:40.208Z,15.00
2017-09-22T11:35:10.448Z,16.10
2017-09-22T11:37:40.830Z,12.57
2017-09-22T11:40:11.107Z,21.87
2017-09-22T11:42:41.277Z,19.70
2017-09-22T11:45:11.615Z,19.60
2017-09-22T11:47:41.694Z,24.80
2017-09-22T11:50:12.529Z,15.37
2017-09-22T11:52:43.444Z,18.23
2017-09-22T11:55:14.121Z,22.63
2017-09-22T11:57:44.322Z,15.40
2017-09-22T12:00:15.574Z,16.73
2017-09-22T12:02:52.885Z,18.17
2017-09-22T12:05:23.859Z,14.90
2017-09-22T12:07:54.030Z,13.90
2017-09-22T12:10:24.172Z,12.90
2017-09-22T12:12:54.611Z,14.17
2017-09-22T12:15:25.235Z,12.73
2017-09-22T12:17:55.775Z,13.50
2017-09-22T12:20:35.547Z,14.07
2017-09-22T12:23:07.413Z,19.53
2017-09-22T12:25:37.810Z,13.03
2017-09-22T12:28:07.913Z,12.53
2017-09-22T12:30:37.969Z,12.10
2017-09-22T12:33:08.378Z,12.97
2017-09-22T12:35:38.718Z,16.47
2017-09-22T12:38:08.878Z,14.20
2017-09-22T12:40:38.945Z,17.80
2017-09-22T12:43:09.096Z,14.33
2017-09-22T12:45:39.248Z,14.07
2017-09-22T12:48:09.478Z,16.90
2017-09-22T12:50:39.831Z,19.30
2017-09-22T12:53:09.877Z,16.50
2017-09-22T12:55:40.273Z,18.90
2017-09-22T12:58:10.518Z,12.60
2017-09-22T13:00:48.667Z,11.97
2017-09-22T13:03:18.885Z,13.87
2017-09-22T13:05:49.574Z,18.60
2017-09-22T13:08:19.775Z,19.30
2017-09-22T13:10:50.012Z,14.53
2017-09-22T13:13:20.426Z,14.50
2017-09-22T13:15:51.006Z,14.03
2017-09-22T13:18:21.866Z,12.90
2017-09-22T13:20:52.006Z,19.30
2017-09-22T13:23:22.267Z,14.53
2017-09-22T13:25:53.266Z,15.17
2017-09-22T13:28:23.677Z,15.80
2017-09-22T13:30:54.005Z,15.80
2017-09-22T13:33:24.190Z,20.27
2017-09-22T13:35:55.189Z,18.67
2017-09-22T13:38:25.253Z,16.10
2017-09-22T13:40:55.482Z,21.60
2017-09-22T13:43:25.793Z,16.87
2017-09-22T13:45:59.387Z,13.73
2017-09-22T13:48:29.880Z,16.27
2017-09-22T13:51:00.458Z,13.30
2017-09-22T13:53:30.646Z,21.00
2017-09-22T13:56:01.057Z,18.50
2017-09-22T13:58:31.330Z,18.83
2017-09-22T14:01:02.450Z,20.33
2017-09-22T14:03:33.296Z,14.23
2017-09-22T14:06:04.087Z,19.37
2017-09-22T14:08:34.453Z,17.23
2017-09-22T14:11:04.984Z,19.30
2017-09-22T14:13:36.010Z,21.40
2017-09-22T14:16:06.966Z,23.57
2017-09-22T14:18:37.890Z,20.80
2017-09-22T14:21:08.055Z,17.63
2017-09-22T14:23:38.645Z,20.10
2017-09-22T14:26:09.522Z,27.00
2017-09-22T14:28:40.160Z,22.27
2017-09-22T14:31:10.700Z,19.00
2017-09-22T14:33:40.882Z,28.73
2017-09-22T14:36:11.148Z,22.80
2017-09-22T14:38:41.258Z,22.17
2017-09-22T14:41:11.543Z,19.50
2017-09-22T14:43:41.919Z,23.00
2017-09-22T14:46:12.145Z,26.43
2017-09-22T14:48:43.206Z,24.10
2017-09-22T14:51:13.566Z,24.33
2017-09-22T14:53:43.954Z,27.80
2017-09-22T14:56:15.129Z,27.90
2017-09-22T14:58:45.447Z,27.20
2017-09-22T15:01:16.474Z,23.60
2017-09-22T15:03:47.470Z,24.03
2017-09-22T15:06:17.603Z,10.80
2017-09-22T15:08:48.065Z,16.40
2017-09-22T15:11:18.912Z,22.67
2017-09-22T15:13:49.054Z,29.50
2017-09-22T15:16:19.158Z,18.73
2017-09-22T15:18:50.087Z,24.07
2017-09-22T15:21:21.453Z,21.83
2017-09-22T15:23:51.674Z,18.30
2017-09-22T15:26:22.180Z,16.87
2017-09-22T15:28:52.234Z,23.10
2017-09-22T15:31:22.355Z,21.67
2017-09-22T15:33:52.769Z,19.30
2017-09-22T15:36:22.949Z,15.17
2017-09-22T15:38:53.855Z,22.90
2017-09-22T15:41:23.982Z,23.87
2017-09-22T15:43:54.844Z,24.83
2017-09-22T15:46:25.156Z,26.47
2017-09-22T15:48:55.305Z,23.07
2017-09-22T15:51:26.538Z,25.40
2017-09-22T15:53:57.355Z,20.13
2017-09-22T15:56:27.470Z,24.10
2017-09-22T15:58:57.556Z,28.13
2017-09-22T16:01:28.478Z,22.00
2017-09-22T16:03:59.456Z,20.00
2017-09-22T16:06:29.690Z,21.13
2017-09-22T16:08:59.758Z,21.03
2017-09-22T16:11:29.886Z,18.23
2017-09-22T16:14:00.187Z,27.20
2017-09-22T16:16:31.334Z,24.37
2017-09-22T16:19:01.494Z,32.30
2017-09-22T16:21:31.550Z,21.03
2017-09-22T16:24:02.382Z,25.27
2017-09-22T16:26:32.480Z,24.53
2017-09-22T16:29:02.985Z,23.23
2017-09-22T16:31:33.899Z,34.83
2017-09-22T16:34:04.043Z,37.23
2017-09-22T16:36:34.510Z,31.57
2017-09-22T16:39:05.486Z,26.90
2017-09-22T16:41:36.838Z,31.40
2017-09-22T16:44:06.942Z,21.60
2017-09-22T16:46:37.839Z,29.40
2017-09-22T16:49:08.169Z,22.97
2017-09-22T16:51:38.775Z,29.73
2017-09-22T16:54:08.929Z,33.43
2017-09-22T16:56:39.839Z,37.57
2017-09-22T16:59:09.910Z,23.03
2017-09-22T17:01:41.353Z,32.67
2017-09-22T17:04:12.392Z,20.80
2017-09-22T17:06:43.213Z,29.27
2017-09-22T17:09:14.596Z,22.63
2017-09-22T17:11:46.386Z,30.20
2017-09-22T17:14:17.812Z,28.90
2017-09-22T17:16:47.942Z,23.17
2017-09-22T17:19:18.617Z,22.47
2017-09-22T17:21:49.310Z,27.70
2017-09-22T17:24:20.166Z,25.23
2017-09-22T17:26:50.430Z,23.20
2017-09-22T17:29:21.375Z,23.03
2017-09-22T17:31:51.519Z,21.50
2017-09-22T17:34:21.951Z,34.90
2017-09-22T17:36:52.088Z,27.90
2017-09-22T17:39:22.346Z,31.83
2017-09-22T17:41:52.467Z,20.80
2017-09-22T17:44:23.788Z,28.67
2017-09-22T17:46:54.034Z,17.53
2017-09-22T17:49:24.301Z,24.37
2017-09-22T17:51:54.660Z,16.90
2017-09-22T17:54:25.031Z,14.30
2017-09-22T17:56:55.194Z,17.93
2017-09-22T17:59:25.458Z,16.23
2017-09-22T18:01:56.829Z,16.73
2017-09-22T18:04:27.536Z,21.50
2017-09-22T18:06:58.407Z,20.53
2017-09-22T18:09:28.672Z,16.43
2017-09-22T18:11:59.932Z,14.27
2017-09-22T18:14:30.870Z,16.37
2017-09-22T18:17:02.083Z,18.03
2017-09-22T18:19:32.582Z,14.50
2017-09-22T18:22:05.563Z,15.67
2017-09-22T18:24:35.727Z,15.93
2017-09-22T18:27:06.137Z,14.73
2017-09-22T18:29:36.668Z,17.60
2017-09-22T18:32:06.996Z,17.50
2017-09-22T18:34:37.113Z,20.40
2017-09-22T18:37:09.203Z,17.60
2017-09-22T18:39:40.319Z,15.30
2017-09-22T18:42:10.671Z,22.33
2017-09-22T18:44:41.097Z,23.30
2017-09-22T18:47:11.325Z,24.17
2017-09-22T18:49:41.469Z,24.70
2017-09-22T18:52:12.902Z,23.53
2017-09-22T18:54:43.155Z,22.93
2017-09-22T18:57:14.671Z,21.10
2017-09-22T18:59:44.974Z,19.03
2017-09-22T19:02:16.088Z,20.00
2017-09-22T19:04:46.206Z,23.40
2017-09-22T19:07:16.925Z,17.43
2017-09-22T19:09:47.047Z,11.37
2017-09-22T19:12:17.971Z,14.67
2017-09-22T19:14:49.973Z,15.00
2017-09-22T19:17:20.236Z,12.97
2017-09-22T19:19:52.883Z,19.70
2017-09-22T19:22:24.315Z,13.73
2017-09-22T19:24:54.613Z,11.37
2017-09-22T19:27:25.248Z,12.30
2017-09-22T19:29:55.764Z,11.43
2017-09-22T19:32:27.408Z,16.20
2017-09-22T19:34:57.546Z,17.70
2017-09-22T19:37:29.138Z,12.83
2017-09-22T19:40:02.171Z,19.37
2017-09-22T19:42:32.398Z,15.40
2017-09-22T19:45:03.398Z,16.47
2017-09-22T19:47:33.797Z,16.33
2017-09-22T19:50:04.298Z,16.10
2017-09-22T19:52:36.126Z,18.17
2017-09-22T19:55:06.880Z,17.43
2017-09-22T19:57:37.136Z,34.53
2017-09-22T20:00:07.326Z,19.97
2017-09-22T20:02:37.460Z,23.60
2017-09-22T20:05:07.829Z,21.07
2017-09-22T20:07:38.420Z,19.30
2017-09-22T20:10:08.613Z,18.13
2017-09-22T20:12:39.798Z,23.90
2017-09-22T20:15:11.812Z,21.03
2017-09-22T20:17:42.031Z,19.20
2017-09-22T20:20:12.461Z,20.43
2017-09-22T20:22:42.611Z,22.53
2017-09-22T20:25:13.462Z,39.40
2017-09-22T20:27:43.750Z,30.40
2017-09-22T20:30:14.612Z,18.53
2017-09-22T20:32:44.759Z,30.17
2017-09-22T20:35:15.506Z,20.80
2017-09-22T20:37:45.585Z,21.27
2017-09-22T20:40:15.765Z,25.60
2017-09-22T20:42:46.090Z,21.20
2017-09-22T20:45:16.545Z,23.23
2017-09-22T20:47:46.614Z,23.87
2017-09-22T20:50:17.333Z,29.03
2017-09-22T20:52:47.657Z,20.90
2017-09-22T20:55:17.740Z,23.53
2017-09-22T20:57:51.831Z,23.90
2017-09-22T21:00:22.594Z,19.13
2017-09-22T21:02:53.438Z,23.23
2017-09-22T21:05:23.915Z,22.10
2017-09-22T21:07:54.140Z,16.17
2017-09-22T21:10:24.499Z,24.10
2017-09-22T21:12:55.336Z,32.33
2017-09-22T21:15:25.805Z,24.10
2017-09-22T21:17:56.130Z,27.40
2017-09-22T21:20:26.960Z,24.30
2017-09-22T21:22:57.370Z,27.80
2017-09-22T21:25:27.474Z,34.50
2017-09-22T21:27:57.526Z,29.93
2017-09-22T21:30:27.705Z,22.83
2017-09-22T21:32:58.606Z,26.50
2017-09-22T21:35:28.653Z,23.60
2017-09-22T21:37:59.610Z,26.60
2017-09-22T21:40:29.710Z,25.07
2017-09-22T21:43:00.628Z,26.50
2017-09-22T21:45:31.178Z,42.20
2017-09-22T21:48:02.399Z,24.00
2017-09-22T21:50:32.652Z,27.30
2017-09-22T21:53:03.086Z,34.37
2017-09-22T21:55:33.728Z,24.30
2017-09-22T21:58:04.771Z,29.80
2017-09-22T22:00:35.363Z,25.03
2017-09-22T22:03:09.770Z,25.53
2017-09-22T22:05:40.132Z,28.47
2017-09-22T22:08:10.316Z,25.13
2017-09-22T22:10:41.804Z,23.10
2017-09-22T22:13:11.858Z,21.13
2017-09-22T22:15:41.929Z,30.93
2017-09-22T22:18:12.746Z,36.03
2017-09-22T22:20:42.845Z,27.30
2017-09-22T22:23:13.073Z,36.37
2017-09-22T22:25:44.425Z,34.03
2017-09-22T22:28:14.732Z,27.37
2017-09-22T22:30:45.658Z,29.37
2017-09-22T22:33:15.741Z,23.17
2017-09-22T22:35:45.775Z,23.93
2017-09-22T22:38:16.330Z,29.83
2017-09-22T22:40:47.591Z,30.50
2017-09-22T22:43:18.638Z,30.20
2017-09-22T22:45:49.414Z,22.23
2017-09-22T22:48:19.951Z,19.87
2017-09-22T22:50:50.126Z,39.30
2017-09-22T22:53:20.214Z,36.60
2017-09-22T22:55:50.185Z,27.87
2017-09-22T22:58:21.130Z,23.97
2017-09-22T23:00:52.117Z,26.77
2017-09-22T23:03:22.130Z,27.13
2017-09-22T23:05:52.289Z,30.10
2017-09-22T23:08:22.997Z,27.57
2017-09-22T23:10:53.774Z,22.97
2017-09-22T23:13:24.145Z,32.40
2017-09-22T23:15:54.920Z,30.87
2017-09-22T23:18:24.899Z,32.33
2017-09-22T23:20:54.881Z,31.50
2017-09-22T23:23:25.142Z,27.83
2017-09-22T23:25:55.138Z,24.13
2017-09-22T23:28:25.214Z,35.37
2017-09-22T23:30:56.378Z,39.33
2017-09-22T23:33:26.426Z,27.43
2017-09-22T23:35:56.842Z,39.80
2017-09-22T23:38:27.021Z,43.50
2017-09-22T23:40:58.166Z,40.50
2017-09-22T23:43:28.301Z,33.20
2017-09-22T23:45:58.623Z,35.63
2017-09-22T23:48:28.588Z,45.90
2017-09-22T23:50:58.807Z,34.90
2017-09-22T23:53:30.016Z,34.13
2017-09-22T23:56:00.425Z,29.87
2017-09-22T23:58:30.701Z,29.37
